createdAt,value
2023-05-18T00:00:16.688Z,4.47
2023-05-18T00:02:43.639Z,4.63
2023-05-18T00:05:10.578Z,4.83
2023-05-18T00:07:37.639Z,4.90
2023-05-18T00:10:06.250Z,4.97
2023-05-18T00:12:33.075Z,4.17
2023-05-18T00:14:59.762Z,4.93
2023-05-18T00:17:26.624Z,4.67
2023-05-18T00:19:53.686Z,4.87
2023-05-18T00:22:20.470Z,4.47
2023-05-18T00:24:48.075Z,4.40
2023-05-18T00:27:15.273Z,4.47
2023-05-18T00:29:42.276Z,5.10
2023-05-18T00:32:10.113Z,4.73
2023-05-18T00:34:37.330Z,4.43
2023-05-18T00:37:04.532Z,4.40
2023-05-18T00:39:31.414Z,4.60
2023-05-18T00:41:58.212Z,5.00
2023-05-18T00:44:26.231Z,5.00
2023-05-18T00:46:53.337Z,4.80
2023-05-18T00:49:20.617Z,4.60
2023-05-18T00:51:48.326Z,4.90
2023-05-18T00:54:16.700Z,4.03
2023-05-18T00:56:46.782Z,4.60
2023-05-18T00:59:13.879Z,4.80
2023-05-18T01:01:44.017Z,4.60
2023-05-18T01:04:14.222Z,4.43
2023-05-18T01:06:42.846Z,4.43
2023-05-18T01:09:12.113Z,4.77
2023-05-18T01:12:00.308Z,4.27
2023-05-18T01:14:42.795Z,4.10
2023-05-18T01:17:35.829Z,4.43
2023-05-18T01:20:15.672Z,4.73
2023-05-18T01:22:58.053Z,4.13
2023-05-18T01:25:32.241Z,4.43
2023-05-18T01:28:08.675Z,4.50
2023-05-18T01:30:41.871Z,4.60
2023-05-18T01:33:11.847Z,4.90
2023-05-18T01:35:48.304Z,4.47
2023-05-18T01:38:21.218Z,4.40
2023-05-18T01:40:56.876Z,4.40
2023-05-18T01:43:30.034Z,4.80
2023-05-18T01:46:01.020Z,4.60
2023-05-18T01:48:28.217Z,5.00
2023-05-18T01:50:58.800Z,4.50
2023-05-18T01:53:38.197Z,5.20
2023-05-18T01:56:09.764Z,4.57
2023-05-18T01:58:38.129Z,4.67
2023-05-18T02:01:05.234Z,5.17
2023-05-18T02:03:33.575Z,5.27
2023-05-18T02:06:00.533Z,5.07
2023-05-18T02:08:27.567Z,5.50
2023-05-18T02:10:55.005Z,5.27
2023-05-18T02:13:21.741Z,5.40
2023-05-18T02:15:49.078Z,5.47
2023-05-18T02:18:16.616Z,5.63
2023-05-18T02:20:43.661Z,5.00
2023-05-18T02:23:11.080Z,6.10
2023-05-18T02:25:38.722Z,10.73
2023-05-18T02:28:05.777Z,10.90
2023-05-18T02:30:33.423Z,10.83
2023-05-18T02:33:00.220Z,10.57
2023-05-18T02:35:27.209Z,11.80
2023-05-18T02:37:54.256Z,10.07
2023-05-18T02:40:21.209Z,10.40
2023-05-18T02:42:48.037Z,10.37
2023-05-18T02:45:15.301Z,10.03
2023-05-18T02:47:44.235Z,10.43
2023-05-18T02:50:11.694Z,9.73
2023-05-18T02:52:39.241Z,9.30
2023-05-18T02:55:06.378Z,10.80
2023-05-18T02:58:00.140Z,10.07
2023-05-18T03:00:49.115Z,10.00
2023-05-18T03:03:16.230Z,9.87
2023-05-18T03:05:44.876Z,10.23
2023-05-18T03:08:11.984Z,10.90
2023-05-18T03:10:38.845Z,10.60
2023-05-18T03:13:05.848Z,9.33
2023-05-18T03:15:32.906Z,9.70
2023-05-18T03:18:00.088Z,9.70
2023-05-18T03:20:31.703Z,10.83
2023-05-18T03:22:58.579Z,10.37
2023-05-18T03:25:25.731Z,9.87
2023-05-18T03:27:53.060Z,9.50
2023-05-18T03:30:20.323Z,10.40
2023-05-18T03:32:49.844Z,10.77
2023-05-18T03:35:16.735Z,10.70
2023-05-18T03:37:43.533Z,10.33
2023-05-18T03:40:15.711Z,10.70
2023-05-18T03:42:44.150Z,9.87
2023-05-18T03:45:12.542Z,10.67
2023-05-18T03:47:41.182Z,9.90
2023-05-18T03:50:08.947Z,8.90
2023-05-18T03:52:37.104Z,9.10
2023-05-18T03:55:07.091Z,10.00
2023-05-18T03:57:34.043Z,9.27
2023-05-18T04:00:07.798Z,9.13
2023-05-18T04:02:44.106Z,9.13
2023-05-18T04:05:12.726Z,10.57
2023-05-18T04:07:44.337Z,10.10
2023-05-18T04:10:12.481Z,10.20
2023-05-18T04:12:40.211Z,10.73
2023-05-18T04:15:07.648Z,9.77
2023-05-18T04:17:35.600Z,9.63
2023-05-18T04:20:07.072Z,8.90
2023-05-18T04:22:36.340Z,9.60
2023-05-18T04:25:03.339Z,9.30
2023-05-18T04:27:30.582Z,9.13
2023-05-18T04:29:57.726Z,9.33
2023-05-18T04:32:27.475Z,9.33
2023-05-18T04:34:54.975Z,9.73
2023-05-18T04:37:22.429Z,8.60
2023-05-18T04:39:49.227Z,9.50
2023-05-18T04:42:18.556Z,8.30
2023-05-18T04:44:45.824Z,8.40
2023-05-18T04:47:12.961Z,8.47
2023-05-18T04:49:39.967Z,7.97
2023-05-18T04:52:10.350Z,8.57
2023-05-18T04:54:37.910Z,7.80
2023-05-18T04:57:05.013Z,7.97
2023-05-18T04:59:36.890Z,7.80
2023-05-18T05:02:04.731Z,7.50
2023-05-18T05:04:32.054Z,7.63
2023-05-18T05:06:58.896Z,7.13
2023-05-18T05:09:25.599Z,7.50
2023-05-18T05:11:52.380Z,7.13
2023-05-18T05:14:19.112Z,6.90
2023-05-18T05:16:46.407Z,6.50
2023-05-18T05:19:13.306Z,6.40
2023-05-18T05:21:40.735Z,6.90
2023-05-18T05:24:08.501Z,6.17
2023-05-18T05:26:36.117Z,6.63
2023-05-18T05:29:03.460Z,5.70
2023-05-18T05:31:30.735Z,5.43
2023-05-18T05:33:57.988Z,5.67
2023-05-18T05:36:25.028Z,5.43
2023-05-18T05:38:52.168Z,5.37
2023-05-18T05:41:19.781Z,4.93
2023-05-18T05:43:48.047Z,5.07
2023-05-18T05:46:14.883Z,5.17
2023-05-18T05:48:42.019Z,5.43
2023-05-18T05:51:08.890Z,5.27
2023-05-18T05:53:35.651Z,5.30
2023-05-18T05:56:03.711Z,4.50
2023-05-18T05:58:31.469Z,4.83
2023-05-18T06:01:00.154Z,4.70
2023-05-18T06:03:29.409Z,4.47
2023-05-18T06:05:59.116Z,4.33
2023-05-18T06:08:26.140Z,4.20
2023-05-18T06:10:53.502Z,4.35
2023-05-18T06:13:20.438Z,4.55
2023-05-18T06:15:50.223Z,4.30
2023-05-18T06:18:17.097Z,4.30
2023-05-18T06:20:45.199Z,4.03
2023-05-18T06:23:12.243Z,4.20
2023-05-18T06:25:48.779Z,4.32
2023-05-18T06:28:41.709Z,4.05
2023-05-18T06:31:18.974Z,3.72
2023-05-18T06:34:15.249Z,4.00
2023-05-18T06:36:42.597Z,3.17
2023-05-18T06:39:09.426Z,4.25
2023-05-18T06:41:36.450Z,3.55
2023-05-18T06:44:03.409Z,4.00
2023-05-18T06:46:35.423Z,3.70
2023-05-18T06:49:07.107Z,3.90
2023-05-18T06:51:33.868Z,3.40
2023-05-18T06:54:00.933Z,3.72
2023-05-18T06:56:28.041Z,3.38
2023-05-18T06:58:55.365Z,3.10
2023-05-18T07:01:22.314Z,3.75
2023-05-18T07:03:49.123Z,3.67
2023-05-18T07:06:15.952Z,3.88
2023-05-18T07:08:44.705Z,3.13
2023-05-18T07:11:11.484Z,3.85
2023-05-18T07:13:38.455Z,3.67
2023-05-18T07:16:05.542Z,3.40
2023-05-18T07:18:32.420Z,3.30
2023-05-18T07:20:59.430Z,3.13
2023-05-18T07:23:26.188Z,3.58
2023-05-18T07:25:53.290Z,3.25
2023-05-18T07:28:20.070Z,3.17
2023-05-18T07:30:46.856Z,3.25
2023-05-18T07:33:13.681Z,3.63
2023-05-18T07:35:40.555Z,3.38
2023-05-18T07:38:07.549Z,3.47
2023-05-18T07:40:34.272Z,3.25
2023-05-18T07:43:01.328Z,3.00
2023-05-18T07:45:28.367Z,2.85
2023-05-18T07:47:55.436Z,2.88
2023-05-18T07:50:22.535Z,3.60
2023-05-18T07:52:50.471Z,3.00
2023-05-18T07:55:17.540Z,3.03
2023-05-18T07:57:44.696Z,4.10
2023-05-18T08:00:12.270Z,3.00
2023-05-18T08:02:44.967Z,2.22
2023-05-18T08:05:12.315Z,2.80
2023-05-18T08:07:39.094Z,2.88
2023-05-18T08:10:06.175Z,2.80
2023-05-18T08:12:32.959Z,2.40
2023-05-18T08:14:59.901Z,3.00
2023-05-18T08:17:26.866Z,3.22
2023-05-18T08:19:54.400Z,2.92
2023-05-18T08:22:21.451Z,3.40
2023-05-18T08:24:48.473Z,3.38
2023-05-18T08:27:15.256Z,2.70
2023-05-18T08:29:41.964Z,3.50
2023-05-18T08:32:09.175Z,3.15
2023-05-18T08:34:36.122Z,3.17
2023-05-18T08:37:03.120Z,3.10
2023-05-18T08:39:32.063Z,2.88
2023-05-18T08:42:10.453Z,2.92
2023-05-18T08:44:57.202Z,3.13
2023-05-18T08:47:26.697Z,3.47
2023-05-18T08:49:56.486Z,3.55
2023-05-18T08:52:28.957Z,3.45
2023-05-18T08:55:00.061Z,3.67
2023-05-18T08:57:30.001Z,3.63
2023-05-18T09:00:00.426Z,4.10
2023-05-18T09:02:27.669Z,4.00
2023-05-18T09:04:56.176Z,4.05
2023-05-18T09:07:23.583Z,3.63
2023-05-18T09:09:50.643Z,3.60
2023-05-18T09:12:20.178Z,3.50
2023-05-18T09:14:48.659Z,3.45
2023-05-18T09:17:15.691Z,3.35
2023-05-18T09:19:42.406Z,3.67
2023-05-18T09:22:09.645Z,3.15
2023-05-18T09:24:38.412Z,3.10
2023-05-18T09:27:06.216Z,3.47
2023-05-18T09:29:33.893Z,3.08
2023-05-18T09:32:07.119Z,3.33
2023-05-18T09:34:41.701Z,2.97
2023-05-18T09:37:09.886Z,2.88
2023-05-18T09:39:36.601Z,3.17
2023-05-18T09:42:04.302Z,3.70
2023-05-18T09:44:32.706Z,3.10
2023-05-18T09:46:59.603Z,3.13
2023-05-18T09:49:29.863Z,3.38
2023-05-18T09:52:00.007Z,3.30
2023-05-18T09:54:26.843Z,2.72
2023-05-18T09:57:08.957Z,3.10
2023-05-18T09:59:37.402Z,3.20
2023-05-18T10:02:06.164Z,2.92
2023-05-18T10:04:41.374Z,3.30
2023-05-18T10:07:16.485Z,3.20
2023-05-18T10:09:45.648Z,3.42
2023-05-18T10:12:17.275Z,3.22
2023-05-18T10:14:45.938Z,3.08
2023-05-18T10:17:16.195Z,2.70
2023-05-18T10:19:45.662Z,3.22
2023-05-18T10:22:16.120Z,2.72
2023-05-18T10:24:46.543Z,2.75
2023-05-18T10:27:16.395Z,3.00
2023-05-18T10:29:44.843Z,2.72
2023-05-18T10:32:12.960Z,2.95
2023-05-18T10:34:41.945Z,2.72
2023-05-18T10:37:12.072Z,3.03
2023-05-18T10:39:40.485Z,3.38
2023-05-18T10:42:09.447Z,2.72
2023-05-18T10:44:36.919Z,2.58
2023-05-18T10:47:09.328Z,2.60
2023-05-18T10:49:38.329Z,2.63
2023-05-18T10:52:07.341Z,2.80
2023-05-18T10:54:34.129Z,3.28
2023-05-18T10:57:02.845Z,2.70
2023-05-18T10:59:30.205Z,3.00
2023-05-18T11:01:58.327Z,3.00
2023-05-18T11:04:30.190Z,2.63
2023-05-18T11:07:01.584Z,2.65
2023-05-18T11:09:30.323Z,3.10
2023-05-18T11:11:58.285Z,2.90
2023-05-18T11:14:30.366Z,2.55
2023-05-18T11:17:25.827Z,2.90
2023-05-18T11:20:12.835Z,2.80
2023-05-18T11:22:42.624Z,3.42
2023-05-18T11:25:10.333Z,3.05
2023-05-18T11:27:38.370Z,2.97
2023-05-18T11:30:25.537Z,2.72
2023-05-18T11:32:52.655Z,3.00
2023-05-18T11:35:25.943Z,3.20
2023-05-18T11:37:52.776Z,3.05
2023-05-18T11:40:45.746Z,3.00
2023-05-18T11:43:38.965Z,2.90
2023-05-18T11:46:18.646Z,3.10
2023-05-18T11:48:45.902Z,2.20
2023-05-18T11:51:13.560Z,3.47
2023-05-18T11:53:41.429Z,3.30
2023-05-18T11:56:12.970Z,3.13
2023-05-18T11:58:39.732Z,2.97
2023-05-18T12:01:11.741Z,3.15
2023-05-18T12:03:39.886Z,2.78
2023-05-18T12:06:07.389Z,3.45
2023-05-18T12:08:34.286Z,3.08
2023-05-18T12:11:03.167Z,2.53
2023-05-18T12:13:30.901Z,2.83
2023-05-18T12:15:59.175Z,2.97
2023-05-18T12:18:29.374Z,2.38
2023-05-18T12:20:56.212Z,2.70
2023-05-18T12:23:36.975Z,2.75
2023-05-18T12:26:03.840Z,2.80
2023-05-18T12:28:31.105Z,2.80
2023-05-18T12:30:58.709Z,3.15
2023-05-18T12:33:26.025Z,2.28
2023-05-18T12:35:55.071Z,2.20
2023-05-18T12:38:26.209Z,2.20
2023-05-18T12:40:54.320Z,2.33
2023-05-18T12:43:21.172Z,2.53
2023-05-18T12:45:47.991Z,3.25
2023-05-18T12:48:15.185Z,6.53
2023-05-18T12:50:49.560Z,3.13
2023-05-18T12:53:18.194Z,2.63
2023-05-18T12:55:45.384Z,3.08
2023-05-18T12:58:19.985Z,2.63
2023-05-18T13:00:48.646Z,3.25
2023-05-18T13:03:17.654Z,3.10
2023-05-18T13:05:46.547Z,3.10
2023-05-18T13:08:19.977Z,3.17
2023-05-18T13:10:49.310Z,3.50
2023-05-18T13:13:22.309Z,3.25
2023-05-18T13:15:51.167Z,3.65
2023-05-18T13:18:17.934Z,2.90
2023-05-18T13:20:50.795Z,2.95
2023-05-18T13:23:21.248Z,2.80
2023-05-18T13:25:48.584Z,3.00
2023-05-18T13:28:17.846Z,3.38
2023-05-18T13:30:45.802Z,2.70
2023-05-18T13:33:12.778Z,2.88
2023-05-18T13:35:43.873Z,2.80
2023-05-18T13:38:13.291Z,2.63
2023-05-18T13:40:41.276Z,2.55
2023-05-18T13:43:10.903Z,3.05
2023-05-18T13:45:39.424Z,2.60
2023-05-18T13:48:09.552Z,2.97
2023-05-18T13:50:37.076Z,2.63
2023-05-18T13:53:03.942Z,2.40
2023-05-18T13:55:31.137Z,2.25
2023-05-18T13:57:58.418Z,2.80
2023-05-18T14:00:25.293Z,2.17
2023-05-18T14:02:53.436Z,2.15
2023-05-18T14:05:20.892Z,2.30
2023-05-18T14:07:48.181Z,2.58
2023-05-18T14:10:14.985Z,1.98
2023-05-18T14:12:42.724Z,2.35
2023-05-18T14:15:11.034Z,2.60
2023-05-18T14:17:37.864Z,2.40
2023-05-18T14:20:05.886Z,2.55
2023-05-18T14:22:33.218Z,3.20
2023-05-18T14:25:01.069Z,2.40
2023-05-18T14:27:28.419Z,2.45
2023-05-18T14:29:56.258Z,2.70
2023-05-18T14:32:23.351Z,2.70
2023-05-18T14:34:55.580Z,2.72
2023-05-18T14:37:22.673Z,2.53
2023-05-18T14:39:49.697Z,2.92
2023-05-18T14:42:16.561Z,2.58
2023-05-18T14:44:43.339Z,2.95
2023-05-18T14:47:10.743Z,2.20
2023-05-18T14:49:38.147Z,1.98
2023-05-18T14:52:05.601Z,2.33
2023-05-18T14:54:32.629Z,2.03
2023-05-18T14:56:59.909Z,2.00
2023-05-18T14:59:26.745Z,2.22
2023-05-18T15:01:53.665Z,2.30
2023-05-18T15:04:22.010Z,2.15
2023-05-18T15:06:49.771Z,2.45
2023-05-18T15:09:17.718Z,2.85
2023-05-18T15:11:44.608Z,2.50
2023-05-18T15:14:11.548Z,2.30
2023-05-18T15:16:38.937Z,2.50
2023-05-18T15:19:06.168Z,2.28
2023-05-18T15:21:33.043Z,3.38
2023-05-18T15:23:59.861Z,3.40
2023-05-18T15:26:26.983Z,4.07
2023-05-18T15:28:53.869Z,4.15
2023-05-18T15:31:20.755Z,3.10
2023-05-18T15:33:47.899Z,3.10
2023-05-18T15:36:14.699Z,2.53
2023-05-18T15:38:41.756Z,3.13
2023-05-18T15:41:08.583Z,2.08
2023-05-18T15:43:36.700Z,2.42
2023-05-18T15:46:04.054Z,1.88
2023-05-18T15:48:30.880Z,2.13
2023-05-18T15:50:57.936Z,3.50
2023-05-18T15:53:24.741Z,4.57
2023-05-18T15:55:57.439Z,4.03
2023-05-18T15:58:26.637Z,3.60
2023-05-18T16:00:53.730Z,3.35
2023-05-18T16:03:20.807Z,2.65
2023-05-18T16:05:47.638Z,1.92
2023-05-18T16:08:15.096Z,2.00
2023-05-18T16:10:42.258Z,2.30
2023-05-18T16:13:09.034Z,1.60
2023-05-18T16:15:36.197Z,2.05
2023-05-18T16:18:03.605Z,1.70
2023-05-18T16:20:30.947Z,1.33
2023-05-18T16:22:59.492Z,1.30
2023-05-18T16:25:26.498Z,1.50
2023-05-18T16:27:53.262Z,1.58
2023-05-18T16:30:20.330Z,1.50
2023-05-18T16:32:47.199Z,1.55
2023-05-18T16:35:13.984Z,2.07
2023-05-18T16:37:40.935Z,1.50
2023-05-18T16:40:08.439Z,1.40
2023-05-18T16:42:35.362Z,1.65
2023-05-18T16:45:03.054Z,1.45
2023-05-18T16:47:32.613Z,1.40
2023-05-18T16:50:00.653Z,1.27
2023-05-18T16:52:27.703Z,1.17
2023-05-18T16:54:54.526Z,1.20
2023-05-18T16:57:22.241Z,1.10
2023-05-18T16:59:49.167Z,1.87
2023-05-18T17:02:17.108Z,1.80
2023-05-18T17:04:50.076Z,1.60
2023-05-18T17:07:17.203Z,1.47
2023-05-18T17:09:44.585Z,1.17
2023-05-18T17:12:12.185Z,1.47
2023-05-18T17:14:39.736Z,1.50
2023-05-18T17:17:07.404Z,1.70
2023-05-18T17:19:39.452Z,1.27
2023-05-18T17:22:06.370Z,1.47
2023-05-18T17:24:33.227Z,1.23
2023-05-18T17:27:00.702Z,0.97
2023-05-18T17:29:27.876Z,1.23
2023-05-18T17:31:55.151Z,1.30
2023-05-18T17:34:22.919Z,1.27
2023-05-18T17:36:50.543Z,1.20
2023-05-18T17:39:17.363Z,1.80
2023-05-18T17:41:44.606Z,1.30
2023-05-18T17:44:14.356Z,1.43
2023-05-18T17:46:41.863Z,1.10
2023-05-18T17:49:09.054Z,1.60
2023-05-18T17:51:36.372Z,1.33
2023-05-18T17:54:04.215Z,1.20
2023-05-18T17:56:31.828Z,1.20
2023-05-18T17:58:59.439Z,1.98
2023-05-18T18:01:27.043Z,1.37
2023-05-18T18:03:54.517Z,1.60
2023-05-18T18:06:24.880Z,1.77
2023-05-18T18:08:53.956Z,1.50
2023-05-18T18:11:21.910Z,1.53
2023-05-18T18:13:49.501Z,1.87
2023-05-18T18:16:17.837Z,1.90
2023-05-18T18:18:45.379Z,1.63
2023-05-18T18:21:12.292Z,1.90
2023-05-18T18:23:40.148Z,1.90
2023-05-18T18:26:08.167Z,1.77
2023-05-18T18:28:35.595Z,1.60
2023-05-18T18:31:03.611Z,1.43
2023-05-18T18:33:30.791Z,1.60
2023-05-18T18:35:57.738Z,2.30
2023-05-18T18:38:27.160Z,1.80
2023-05-18T18:40:59.890Z,2.60
2023-05-18T18:43:27.965Z,1.80
2023-05-18T18:45:57.159Z,1.17
2023-05-18T18:48:24.963Z,1.97
2023-05-18T18:50:52.725Z,1.67
2023-05-18T18:53:19.964Z,1.83
2023-05-18T18:55:47.121Z,2.10
2023-05-18T18:58:14.185Z,3.17
2023-05-18T19:00:41.410Z,1.83
2023-05-18T19:03:10.085Z,1.70
2023-05-18T19:05:39.141Z,1.70
2023-05-18T19:08:06.532Z,1.73
2023-05-18T19:10:34.484Z,2.93
2023-05-18T19:13:06.124Z,3.73
2023-05-18T19:15:34.107Z,2.70
2023-05-18T19:18:01.771Z,2.57
2023-05-18T19:20:28.672Z,3.30
2023-05-18T19:22:55.638Z,2.73
2023-05-18T19:25:26.450Z,2.63
2023-05-18T19:27:54.053Z,2.30
2023-05-18T19:30:22.502Z,2.53
2023-05-18T19:32:53.291Z,2.70
2023-05-18T19:35:21.962Z,1.97
2023-05-18T19:37:48.772Z,1.80
2023-05-18T19:40:16.474Z,2.20
2023-05-18T19:42:43.556Z,2.13
2023-05-18T19:45:10.693Z,2.00
2023-05-18T19:47:37.678Z,1.50
2023-05-18T19:50:05.311Z,1.90
2023-05-18T19:52:33.814Z,1.77
2023-05-18T19:55:02.099Z,1.83
2023-05-18T19:57:29.345Z,1.57
2023-05-18T19:59:56.171Z,1.80
2023-05-18T20:02:22.964Z,1.90
2023-05-18T20:04:50.836Z,1.67
2023-05-18T20:07:18.169Z,2.00
2023-05-18T20:09:44.954Z,1.60
2023-05-18T20:12:11.909Z,2.13
2023-05-18T20:14:39.209Z,1.77
2023-05-18T20:17:07.246Z,2.20
2023-05-18T20:19:34.117Z,5.57
2023-05-18T20:22:01.157Z,4.13
2023-05-18T20:24:28.046Z,2.30
2023-05-18T20:26:54.868Z,4.23
2023-05-18T20:29:22.228Z,2.17
2023-05-18T20:31:49.463Z,2.60
2023-05-18T20:34:16.432Z,3.63
2023-05-18T20:36:43.383Z,3.20
2023-05-18T20:39:10.266Z,2.90
2023-05-18T20:41:40.312Z,3.10
2023-05-18T20:44:10.596Z,3.23
2023-05-18T20:46:38.174Z,2.73
2023-05-18T20:49:06.190Z,2.30
2023-05-18T20:51:33.092Z,2.17
2023-05-18T20:54:00.151Z,2.03
2023-05-18T20:56:29.509Z,2.00
2023-05-18T20:58:56.955Z,2.00
2023-05-18T21:01:24.013Z,2.30
2023-05-18T21:03:51.252Z,2.40
2023-05-18T21:06:18.199Z,2.53
2023-05-18T21:08:45.433Z,1.97
2023-05-18T21:11:12.205Z,2.40
2023-05-18T21:13:39.002Z,1.93
2023-05-18T21:16:09.624Z,2.53
2023-05-18T21:18:37.686Z,2.50
2023-05-18T21:21:04.823Z,2.43
2023-05-18T21:23:32.209Z,2.60
2023-05-18T21:25:59.208Z,3.10
2023-05-18T21:28:26.219Z,2.90
2023-05-18T21:30:54.643Z,3.20
2023-05-18T21:33:22.033Z,2.80
2023-05-18T21:35:49.403Z,3.40
2023-05-18T21:38:17.252Z,3.40
2023-05-18T21:40:44.240Z,3.50
2023-05-18T21:43:11.366Z,3.80
2023-05-18T21:45:38.794Z,3.30
2023-05-18T21:48:06.819Z,3.40
2023-05-18T21:50:36.728Z,3.47
2023-05-18T21:53:03.783Z,3.30
2023-05-18T21:55:31.753Z,3.57
2023-05-18T21:57:58.659Z,4.00
2023-05-18T22:00:27.090Z,4.10
2023-05-18T22:02:54.089Z,4.10
2023-05-18T22:05:21.115Z,4.40
2023-05-18T22:07:49.238Z,3.90
2023-05-18T22:10:17.883Z,4.67
2023-05-18T22:12:45.193Z,4.27
2023-05-18T22:15:12.744Z,4.60
2023-05-18T22:17:40.287Z,4.10
2023-05-18T22:20:11.628Z,4.43
2023-05-18T22:22:40.406Z,4.17
2023-05-18T22:25:08.089Z,4.43
2023-05-18T22:27:36.979Z,4.03
2023-05-18T22:30:08.282Z,4.90
2023-05-18T22:32:35.298Z,4.37
2023-05-18T22:35:03.462Z,4.67
2023-05-18T22:37:30.807Z,4.93
2023-05-18T22:39:57.608Z,3.97
2023-05-18T22:42:24.396Z,4.47
2023-05-18T22:44:51.417Z,5.23
2023-05-18T22:47:21.481Z,4.27
2023-05-18T22:49:49.282Z,4.20
2023-05-18T22:52:17.859Z,4.33
2023-05-18T22:54:44.813Z,4.30
2023-05-18T22:57:11.801Z,4.97
2023-05-18T22:59:38.698Z,5.00
2023-05-18T23:02:05.913Z,4.70
2023-05-18T23:04:34.309Z,4.90
2023-05-18T23:07:01.850Z,4.50
2023-05-18T23:09:30.413Z,4.57
2023-05-18T23:11:59.592Z,5.13
2023-05-18T23:14:28.213Z,4.50
2023-05-18T23:16:58.375Z,5.03
2023-05-18T23:19:26.954Z,4.47
2023-05-18T23:21:54.009Z,4.60
2023-05-18T23:24:21.475Z,5.00
2023-05-18T23:26:48.594Z,4.87
2023-05-18T23:29:15.434Z,4.67
2023-05-18T23:31:42.210Z,4.80
2023-05-18T23:34:09.307Z,4.90
2023-05-18T23:36:39.678Z,5.40
2023-05-18T23:39:07.383Z,4.80
2023-05-18T23:41:36.032Z,4.70
2023-05-18T23:44:03.396Z,5.13
2023-05-18T23:46:30.724Z,4.77
2023-05-18T23:49:00.798Z,5.30
2023-05-18T23:51:32.037Z,5.13
2023-05-18T23:53:59.315Z,5.13
2023-05-18T23:56:26.493Z,5.40
2023-05-18T23:58:54.061Z,5.40
